createdAt,value
2024-04-06T00:00:17.088Z,13.1009
2024-04-06T00:01:18.505Z,12.9259
2024-04-06T00:02:19.904Z,13.0525
2024-04-06T00:03:23.807Z,12.5828
2024-04-06T00:04:23.194Z,12.4533
2024-04-06T00:05:24.485Z,12.2894
2024-04-06T00:06:25.733Z,12.5087
2024-04-06T00:07:27.048Z,12.6092
2024-04-06T00:08:28.319Z,12.4012
2024-04-06T00:09:29.608Z,12.3360
2024-04-06T00:10:30.861Z,12.5330
2024-04-06T00:11:32.169Z,13.1706
2024-04-06T00:12:33.635Z,13.0724
2024-04-06T00:13:35.038Z,12.9779
2024-04-06T00:14:36.307Z,12.9994
2024-04-06T00:15:37.587Z,12.8685
2024-04-06T00:16:38.882Z,12.7957
2024-04-06T00:17:40.172Z,12.6756
2024-04-06T00:18:41.611Z,12.4839
2024-04-06T00:19:43.104Z,12.4295
2024-04-06T00:20:44.488Z,12.1721
2024-04-06T00:21:45.940Z,11.9867
2024-04-06T00:22:47.385Z,12.0117
2024-04-06T00:23:48.812Z,12.0462
2024-04-06T00:24:50.255Z,12.5338
2024-04-06T00:25:51.691Z,12.3766
2024-04-06T00:26:53.189Z,12.2333
2024-04-06T00:27:54.556Z,12.2963
2024-04-06T00:28:55.828Z,12.2432
2024-04-06T00:29:57.134Z,12.1944
2024-04-06T00:30:58.392Z,12.0720
2024-04-06T00:31:59.692Z,12.0183
2024-04-06T00:33:01.149Z,12.3728
2024-04-06T00:34:02.591Z,12.6134
2024-04-06T00:35:04.013Z,13.0756
2024-04-06T00:36:05.445Z,13.3217
2024-04-06T00:37:06.888Z,13.8540
2024-04-06T00:38:08.328Z,14.0851
2024-04-06T00:39:09.774Z,13.8952
2024-04-06T00:40:11.240Z,13.7430
2024-04-06T00:41:12.614Z,13.9409
2024-04-06T00:42:14.067Z,14.2395
2024-04-06T00:43:15.506Z,13.9822
2024-04-06T00:44:16.949Z,13.6410
2024-04-06T00:45:18.381Z,13.9810
2024-04-06T00:46:19.827Z,14.0685
2024-04-06T00:47:21.147Z,14.0129
2024-04-06T00:48:22.450Z,13.8723
2024-04-06T00:49:23.725Z,13.3786
2024-04-06T00:50:25.064Z,13.3360
2024-04-06T00:51:26.400Z,13.4123
2024-04-06T00:52:27.819Z,13.5027
2024-04-06T00:53:29.317Z,13.6392
2024-04-06T00:54:30.698Z,13.7073
2024-04-06T00:55:32.147Z,13.7014
2024-04-06T00:56:33.584Z,13.9384
2024-04-06T00:57:35.025Z,14.0270
2024-04-06T00:58:36.365Z,13.7518
2024-04-06T00:59:37.705Z,13.5646
2024-04-06T01:00:39.032Z,13.6027
2024-04-06T01:01:44.326Z,14.1750
2024-04-06T01:02:40.332Z,14.2352
2024-04-06T01:03:41.758Z,14.2656
2024-04-06T01:04:43.198Z,13.9637
2024-04-06T01:05:44.517Z,13.9109
2024-04-06T01:06:45.845Z,14.3041
2024-04-06T01:07:47.183Z,14.2837
2024-04-06T01:08:48.628Z,14.1663
2024-04-06T01:09:50.067Z,14.1707
2024-04-06T01:10:51.506Z,14.2980
2024-04-06T01:11:52.946Z,14.3627
2024-04-06T01:12:54.376Z,14.3006
2024-04-06T01:13:55.816Z,14.2865
2024-04-06T01:14:57.259Z,14.2142
2024-04-06T01:15:58.766Z,14.3986
2024-04-06T01:17:00.157Z,14.2843
2024-04-06T01:18:01.587Z,14.2266
2024-04-06T01:19:03.031Z,14.2904
2024-04-06T01:20:04.462Z,14.5947
2024-04-06T01:21:05.898Z,14.6809
2024-04-06T01:22:07.348Z,14.7646
2024-04-06T01:23:08.644Z,14.7046
2024-04-06T01:24:10.057Z,14.6019
2024-04-06T01:25:11.377Z,14.4717
2024-04-06T01:26:12.846Z,14.2447
2024-04-06T01:27:14.198Z,14.2557
2024-04-06T01:28:15.647Z,14.2554
2024-04-06T01:29:17.070Z,14.3517
2024-04-06T01:30:18.511Z,14.6716
2024-04-06T01:31:19.943Z,14.6840
2024-04-06T01:32:21.477Z,14.7155
2024-04-06T01:33:22.827Z,14.9135
2024-04-06T01:34:24.282Z,15.0183
2024-04-06T01:35:25.862Z,15.0276
2024-04-06T01:36:27.226Z,15.0194
2024-04-06T01:37:28.595Z,14.9952
2024-04-06T01:38:30.107Z,15.1264
2024-04-06T01:39:31.495Z,15.0848
2024-04-06T01:40:33.048Z,14.9962
2024-04-06T01:41:34.378Z,14.9649
2024-04-06T01:42:35.827Z,14.9831
2024-04-06T01:43:37.263Z,15.0301
2024-04-06T01:44:38.711Z,15.3160
2024-04-06T01:45:40.137Z,15.2421
2024-04-06T01:46:41.577Z,15.3403
2024-04-06T01:47:43.026Z,15.3270
2024-04-06T01:48:44.375Z,15.2143
2024-04-06T01:49:45.687Z,14.7934
2024-04-06T01:50:47.009Z,14.6567
2024-04-06T01:51:48.459Z,14.6490
2024-04-06T01:52:49.907Z,14.5204
2024-04-06T01:53:51.315Z,14.3170
2024-04-06T01:54:52.602Z,14.2958
2024-04-06T01:55:53.947Z,14.4376
2024-04-06T01:56:55.345Z,14.4428
2024-04-06T01:57:56.774Z,14.0900
2024-04-06T01:58:58.229Z,14.5513
2024-04-06T01:59:59.672Z,14.8801
2024-04-06T02:01:01.118Z,14.9305
2024-04-06T02:02:02.545Z,15.1283
2024-04-06T02:03:03.848Z,14.9690
2024-04-06T02:04:05.190Z,14.9861
2024-04-06T02:05:06.539Z,15.0130
2024-04-06T02:06:07.949Z,15.1682
2024-04-06T02:07:09.430Z,15.0587
2024-04-06T02:08:10.862Z,14.9340
2024-04-06T02:09:12.316Z,15.1537
2024-04-06T02:10:13.752Z,15.1991
2024-04-06T02:11:15.167Z,15.0078
2024-04-06T02:12:16.639Z,15.1719
2024-04-06T02:13:18.073Z,15.3051
2024-04-06T02:14:19.607Z,15.3012
2024-04-06T02:15:20.924Z,15.2178
2024-04-06T02:16:22.387Z,15.1188
2024-04-06T02:17:23.861Z,15.0826
2024-04-06T02:18:25.267Z,15.1399
2024-04-06T02:19:26.783Z,15.2027
2024-04-06T02:20:28.232Z,15.0359
2024-04-06T02:21:29.594Z,15.1143
2024-04-06T02:22:31.353Z,15.0010
2024-04-06T02:23:32.794Z,15.0868
2024-04-06T02:24:34.261Z,15.1908
2024-04-06T02:25:35.662Z,14.8707
2024-04-06T02:26:37.089Z,14.7373
2024-04-06T02:27:38.552Z,14.6928
2024-04-06T02:28:39.981Z,14.7744
2024-04-06T02:29:41.430Z,14.9878
2024-04-06T02:30:42.709Z,14.8242
2024-04-06T02:31:44.070Z,15.1033
2024-04-06T02:32:45.429Z,15.2173
2024-04-06T02:33:46.856Z,15.1834
2024-04-06T02:34:48.337Z,15.0315
2024-04-06T02:35:49.745Z,15.2082
2024-04-06T02:36:51.037Z,15.3587
2024-04-06T02:37:52.355Z,15.3168
2024-04-06T02:38:53.682Z,14.9721
2024-04-06T02:39:54.955Z,14.6108
2024-04-06T02:40:56.251Z,14.3034
2024-04-06T02:41:57.774Z,13.6841
2024-04-06T02:42:59.261Z,13.2614
2024-04-06T02:44:00.620Z,13.1152
2024-04-06T02:45:02.155Z,12.8074
2024-04-06T02:46:03.501Z,12.7564
2024-04-06T02:47:04.943Z,12.4391
2024-04-06T02:48:06.386Z,12.0816
2024-04-06T02:49:07.816Z,12.2798
2024-04-06T02:50:09.248Z,12.1787
2024-04-06T02:51:10.704Z,12.0637
2024-04-06T02:52:12.143Z,11.8582
2024-04-06T02:53:13.567Z,11.7377
2024-04-06T02:54:15.026Z,11.6245
2024-04-06T02:55:16.466Z,11.6063
2024-04-06T02:56:17.911Z,11.6692
2024-04-06T02:57:19.346Z,11.5255
2024-04-06T02:58:20.755Z,11.3449
2024-04-06T02:59:22.212Z,11.1861
2024-04-06T03:00:23.666Z,10.9952
2024-04-06T03:01:25.097Z,10.8747
2024-04-06T03:02:26.575Z,10.7241
2024-04-06T03:03:27.995Z,10.8201
2024-04-06T03:04:29.415Z,11.2104
2024-04-06T03:05:30.724Z,11.5860
2024-04-06T03:06:32.007Z,12.0913
2024-04-06T03:07:33.526Z,12.0139
2024-04-06T03:08:34.867Z,12.1202
2024-04-06T03:09:36.316Z,12.3348
2024-04-06T03:10:37.732Z,12.5795
2024-04-06T03:11:39.186Z,12.9529
2024-04-06T03:12:40.599Z,12.8737
2024-04-06T03:13:42.068Z,13.2023
2024-04-06T03:14:43.377Z,13.2330
2024-04-06T03:15:44.952Z,13.1258
2024-04-06T03:16:46.385Z,13.1371
2024-04-06T03:17:47.815Z,13.1483
2024-04-06T03:18:49.259Z,13.0591
2024-04-06T03:19:50.715Z,12.9375
2024-04-06T03:20:52.019Z,12.9377
2024-04-06T03:21:53.308Z,12.8447
2024-04-06T03:22:54.712Z,12.8949
2024-04-06T03:23:56.234Z,12.8150
2024-04-06T03:24:57.696Z,12.6097
2024-04-06T03:25:59.028Z,12.5864
2024-04-06T03:27:00.450Z,12.4223
2024-04-06T03:28:01.944Z,12.3536
2024-04-06T03:29:03.335Z,12.5750
2024-04-06T03:30:04.798Z,12.3287
2024-04-06T03:31:06.212Z,12.3478
2024-04-06T03:32:07.746Z,12.3516
2024-04-06T03:33:09.106Z,12.3954
2024-04-06T03:34:10.545Z,12.2795
2024-04-06T03:35:11.988Z,12.0481
2024-04-06T03:36:13.427Z,11.8043
2024-04-06T03:37:14.869Z,11.7861
2024-04-06T03:38:16.301Z,11.8500
2024-04-06T03:39:17.731Z,12.0392
2024-04-06T03:40:19.014Z,12.0841
2024-04-06T03:41:20.344Z,11.9107
2024-04-06T03:42:21.752Z,11.9512
2024-04-06T03:43:23.042Z,12.0618
2024-04-06T03:44:24.437Z,12.0161
2024-04-06T03:45:25.754Z,12.0767
2024-04-06T03:46:27.064Z,12.1317
2024-04-06T03:47:28.379Z,12.1678
2024-04-06T03:48:29.734Z,12.2698
2024-04-06T03:49:31.170Z,12.3056
2024-04-06T03:50:32.674Z,12.2839
2024-04-06T03:51:34.027Z,12.3436
2024-04-06T03:52:35.339Z,12.1433
2024-04-06T03:53:36.620Z,12.0286
2024-04-06T03:54:38.055Z,11.9591
2024-04-06T03:55:39.492Z,11.8529
2024-04-06T03:56:40.946Z,11.9886
2024-04-06T03:57:42.375Z,12.3037
2024-04-06T03:58:43.826Z,12.2176
2024-04-06T03:59:45.266Z,12.2418
2024-04-06T04:00:46.704Z,12.2017
2024-04-06T04:01:48.144Z,12.2534
2024-04-06T04:02:49.574Z,12.1966
2024-04-06T04:03:51.015Z,12.2010
2024-04-06T04:04:52.455Z,12.0855
2024-04-06T04:05:53.910Z,12.1948
2024-04-06T04:06:55.354Z,12.2534
2024-04-06T04:07:56.784Z,12.1359
2024-04-06T04:08:58.234Z,12.1813
2024-04-06T04:09:59.655Z,12.2484
2024-04-06T04:11:01.112Z,12.1984
2024-04-06T04:12:02.530Z,12.2672
2024-04-06T04:13:03.978Z,12.2823
2024-04-06T04:14:05.409Z,12.2248
2024-04-06T04:15:06.853Z,12.3802
2024-04-06T04:16:08.286Z,12.2859
2024-04-06T04:17:09.735Z,12.2244
2024-04-06T04:18:11.174Z,12.2707
2024-04-06T04:19:12.609Z,12.0585
2024-04-06T04:20:13.905Z,12.0879
2024-04-06T04:21:15.198Z,11.9777
2024-04-06T04:22:16.504Z,12.0282
2024-04-06T04:23:17.849Z,11.9690
2024-04-06T04:24:19.164Z,11.9649
2024-04-06T04:25:20.616Z,12.1366
2024-04-06T04:26:22.055Z,12.1749
2024-04-06T04:27:23.498Z,12.1647
2024-04-06T04:28:24.936Z,12.1457
2024-04-06T04:29:26.395Z,12.2102
2024-04-06T04:30:27.826Z,12.3038
2024-04-06T04:31:29.286Z,12.2572
2024-04-06T04:32:30.754Z,12.0678
2024-04-06T04:33:32.140Z,12.0117
2024-04-06T04:34:33.580Z,12.0246
2024-04-06T04:35:35.051Z,12.0711
2024-04-06T04:36:36.386Z,11.9327
2024-04-06T04:37:37.688Z,12.0368
2024-04-06T04:38:39.056Z,12.2258
2024-04-06T04:39:40.462Z,12.1688
2024-04-06T04:40:41.742Z,12.1874
2024-04-06T04:41:43.067Z,12.1581
2024-04-06T04:42:44.462Z,12.0842
2024-04-06T04:43:45.906Z,12.1754
2024-04-06T04:44:53.483Z,12.2914
2024-04-06T04:45:47.529Z,12.1924
2024-04-06T04:46:49.075Z,12.1281
2024-04-06T04:47:50.470Z,11.9181
2024-04-06T04:48:51.774Z,11.8105
2024-04-06T04:49:53.297Z,11.7668
2024-04-06T04:50:54.599Z,11.6228
2024-04-06T04:51:55.949Z,11.4815
2024-04-06T04:52:57.238Z,11.3585
2024-04-06T04:53:58.707Z,11.0767
2024-04-06T04:55:00.171Z,10.7698
2024-04-06T04:56:01.607Z,10.6124
2024-04-06T04:57:02.908Z,10.4817
2024-04-06T04:58:04.297Z,10.4293
2024-04-06T04:59:05.630Z,10.3616
2024-04-06T05:00:07.011Z,10.4198
2024-04-06T05:01:08.539Z,10.6559
2024-04-06T05:02:09.906Z,10.6363
2024-04-06T05:03:11.337Z,10.6156
2024-04-06T05:04:12.607Z,10.6514
2024-04-06T05:05:13.896Z,10.8064
2024-04-06T05:06:15.203Z,10.9919
2024-04-06T05:07:16.458Z,11.0854
2024-04-06T05:08:17.759Z,11.4864
2024-04-06T05:09:19.010Z,11.9696
2024-04-06T05:10:20.259Z,11.9694
2024-04-06T05:11:21.614Z,11.8843
2024-04-06T05:12:23.023Z,12.1289
2024-04-06T05:13:24.471Z,12.0026
2024-04-06T05:14:25.918Z,11.9876
2024-04-06T05:15:27.349Z,12.2021
2024-04-06T05:16:28.833Z,12.2639
2024-04-06T05:17:30.244Z,12.2033
2024-04-06T05:18:31.677Z,12.2476
2024-04-06T05:19:32.982Z,12.1284
2024-04-06T05:20:34.324Z,11.9353
2024-04-06T05:21:35.682Z,11.9504
2024-04-06T05:22:37.112Z,11.9636
2024-04-06T05:23:38.627Z,11.9903
2024-04-06T05:24:39.965Z,12.1268
2024-04-06T05:25:41.234Z,12.0411
2024-04-06T05:26:42.589Z,12.0538
2024-04-06T05:27:43.962Z,12.1772
2024-04-06T05:28:45.231Z,12.2486
2024-04-06T05:29:46.543Z,12.1754
2024-04-06T05:30:47.986Z,12.2043
2024-04-06T05:31:49.418Z,12.2295
2024-04-06T05:32:50.698Z,12.2820
2024-04-06T05:33:51.994Z,12.3715
2024-04-06T05:34:53.432Z,12.4174
2024-04-06T05:35:54.858Z,12.3873
2024-04-06T05:36:56.314Z,12.3657
2024-04-06T05:37:57.738Z,12.3986
2024-04-06T05:38:59.006Z,12.4630
2024-04-06T05:40:00.298Z,12.6068
2024-04-06T05:41:01.737Z,12.6596
2024-04-06T05:42:03.191Z,12.6351
2024-04-06T05:43:04.624Z,12.6400
2024-04-06T05:44:07.597Z,12.7804
2024-04-06T05:45:09.007Z,12.7908
2024-04-06T05:46:10.259Z,12.9270
2024-04-06T05:47:11.669Z,13.0880
2024-04-06T05:48:13.099Z,13.1967
2024-04-06T05:49:14.607Z,13.1719
2024-04-06T05:50:15.988Z,13.1885
2024-04-06T05:51:17.418Z,13.3238
2024-04-06T05:52:18.707Z,13.4364
2024-04-06T05:53:20.066Z,13.4992
2024-04-06T05:54:21.420Z,13.5539
2024-04-06T05:55:22.666Z,13.6395
2024-04-06T05:56:23.987Z,13.6268
2024-04-06T05:57:25.431Z,13.5217
2024-04-06T05:58:26.861Z,13.5638
2024-04-06T05:59:28.321Z,13.5928
2024-04-06T06:00:29.740Z,13.6059
2024-04-06T06:01:31.199Z,13.6170
2024-04-06T06:02:32.728Z,13.6192
2024-04-06T06:03:33.979Z,13.6546
2024-04-06T06:04:35.499Z,13.6332
2024-04-06T06:05:36.789Z,13.6970
2024-04-06T06:06:38.051Z,13.8145
2024-04-06T06:07:39.512Z,13.8363
2024-04-06T06:08:40.953Z,13.7081
2024-04-06T06:09:42.377Z,13.7513
2024-04-06T06:10:43.884Z,13.6745
2024-04-06T06:11:45.271Z,13.8281
2024-04-06T06:12:46.717Z,13.7543
2024-04-06T06:13:48.147Z,13.7186
2024-04-06T06:14:49.576Z,13.8372
2024-04-06T06:15:51.026Z,13.8270
2024-04-06T06:16:52.507Z,13.8539
2024-04-06T06:17:53.923Z,13.8850
2024-04-06T06:18:55.326Z,13.7631
2024-04-06T06:19:56.595Z,13.9293
2024-04-06T06:20:58.007Z,13.9827
2024-04-06T06:21:59.346Z,14.0328
2024-04-06T06:23:00.792Z,14.0224
2024-04-06T06:24:02.254Z,14.1201
2024-04-06T06:25:03.676Z,14.2251
2024-04-06T06:26:05.107Z,14.2482
2024-04-06T06:27:06.568Z,14.1440
2024-04-06T06:28:07.985Z,14.2887
2024-04-06T06:29:09.448Z,14.3176
2024-04-06T06:30:10.868Z,14.4500
2024-04-06T06:31:12.303Z,14.4434
2024-04-06T06:32:13.753Z,14.4345
2024-04-06T06:33:15.195Z,14.4340
2024-04-06T06:34:16.654Z,14.5802
2024-04-06T06:35:18.069Z,14.5320
2024-04-06T06:38:20.511Z,14.5093
2024-04-06T06:41:23.573Z,14.7229
2024-04-06T06:42:24.934Z,14.6877
2024-04-06T06:43:26.384Z,14.6994
2024-04-06T06:44:27.838Z,14.7170
2024-04-06T06:45:29.269Z,14.7480
2024-04-06T06:46:30.693Z,14.8166
2024-04-06T06:47:32.179Z,14.8041
2024-04-06T06:48:33.570Z,14.8248
2024-04-06T06:49:35.017Z,14.9025
2024-04-06T06:50:36.455Z,14.9324
2024-04-06T06:51:37.896Z,14.8802
2024-04-06T06:52:39.352Z,14.9435
2024-04-06T06:53:40.622Z,14.9973
2024-04-06T06:54:42.828Z,14.9292
2024-04-06T06:55:44.237Z,14.8864
2024-04-06T06:56:45.682Z,14.7290
2024-04-06T06:57:47.131Z,14.7155
2024-04-06T06:58:48.366Z,14.5743
2024-04-06T07:00:50.346Z,14.6151
2024-04-06T07:01:51.650Z,14.5763
2024-04-06T07:02:52.909Z,14.3251
2024-04-06T07:03:54.208Z,14.2417
2024-04-06T07:04:55.458Z,14.3455
2024-04-06T07:05:56.897Z,14.5183
2024-04-06T07:07:58.937Z,14.6036
2024-04-06T07:09:02.748Z,14.6614
2024-04-06T07:10:00.786Z,14.6258
2024-04-06T07:11:02.078Z,14.6000
2024-04-06T07:12:03.325Z,14.5901
2024-04-06T07:13:04.652Z,14.6258
2024-04-06T07:14:06.082Z,14.6891
2024-04-06T07:15:07.498Z,14.8160
2024-04-06T07:16:08.775Z,14.7503
2024-04-06T07:17:10.060Z,14.8157
2024-04-06T07:18:11.329Z,14.8075
2024-04-06T07:19:12.927Z,14.8097
2024-04-06T07:20:14.190Z,14.9764
2024-04-06T07:21:15.505Z,15.0175
2024-04-06T07:22:16.956Z,15.2374
2024-04-06T07:23:18.286Z,15.3078
2024-04-06T07:24:19.553Z,15.2728
2024-04-06T07:25:20.814Z,15.3369
2024-04-06T07:26:22.078Z,15.3922
2024-04-06T07:27:23.503Z,15.2337
2024-04-06T07:28:24.942Z,15.1655
2024-04-06T07:29:26.386Z,15.3164
2024-04-06T07:30:27.833Z,15.4429
2024-04-06T07:31:29.279Z,15.5092
2024-04-06T07:32:30.770Z,15.5984
2024-04-06T07:33:32.124Z,15.6306
2024-04-06T07:34:33.595Z,15.5538
2024-04-06T07:35:35.020Z,15.5100
2024-04-06T07:36:36.471Z,15.6524
2024-04-06T07:37:37.898Z,15.7303
2024-04-06T07:39:20.084Z,15.9545
2024-04-06T07:39:39.298Z,16.0074
2024-04-06T07:40:40.625Z,15.9300
2024-04-06T07:41:42.055Z,15.9151
2024-04-06T07:42:43.498Z,15.9903
2024-04-06T07:43:44.944Z,16.0883
2024-04-06T07:44:46.380Z,16.0330
2024-04-06T07:45:47.671Z,16.0732
2024-04-06T07:46:49.525Z,16.1067
2024-04-06T07:47:50.968Z,16.1515
2024-04-06T07:48:52.381Z,16.3767
2024-04-06T07:49:53.835Z,16.4056
2024-04-06T07:50:55.286Z,16.1967
2024-04-06T07:51:56.728Z,16.3200
2024-04-06T07:52:58.151Z,16.3810
2024-04-06T07:53:59.442Z,16.2902
2024-04-06T07:55:00.727Z,16.1081
2024-04-06T07:56:02.018Z,16.1944
2024-04-06T07:57:03.425Z,15.9988
2024-04-06T07:58:04.713Z,15.9424
2024-04-06T07:59:06.014Z,15.9821
2024-04-06T08:00:07.454Z,16.0346
2024-04-06T08:01:08.797Z,15.9810
2024-04-06T08:02:10.208Z,16.2000
2024-04-06T08:03:11.657Z,16.3723
2024-04-06T08:04:12.981Z,16.5319
2024-04-06T08:05:14.305Z,16.3725
2024-04-06T08:06:15.697Z,16.1149
2024-04-06T08:07:17.131Z,15.9433
2024-04-06T08:08:18.456Z,15.8207
2024-04-06T08:09:19.745Z,15.9082
2024-04-06T08:10:21.226Z,15.9982
2024-04-06T08:11:22.537Z,16.1139
2024-04-06T08:12:23.997Z,16.1453
2024-04-06T08:13:25.431Z,16.0767
2024-04-06T08:14:26.846Z,16.1241
2024-04-06T08:15:30.830Z,16.3550
2024-04-06T08:16:29.738Z,16.3358
2024-04-06T08:17:31.197Z,16.2996
2024-04-06T08:18:32.620Z,16.2847
2024-04-06T08:19:34.066Z,16.4543
2024-04-06T08:20:35.494Z,16.6131
2024-04-06T08:21:36.788Z,16.6293
2024-04-06T08:22:38.053Z,16.7248
2024-04-06T08:23:39.502Z,17.0310
2024-04-06T08:24:40.996Z,17.3062
2024-04-06T08:25:42.411Z,17.0883
2024-04-06T08:26:43.813Z,17.0939
2024-04-06T08:27:45.097Z,17.0237
2024-04-06T08:28:46.526Z,17.0829
2024-04-06T08:29:47.818Z,17.0867
2024-04-06T08:30:49.121Z,17.2801
2024-04-06T08:31:50.462Z,17.2077
2024-04-06T08:32:51.730Z,17.2966
2024-04-06T08:33:53.036Z,17.5232
2024-04-06T08:34:54.393Z,17.2884
2024-04-06T08:35:55.822Z,17.1172
2024-04-06T08:36:57.270Z,17.1951
2024-04-06T08:37:58.723Z,17.3349
2024-04-06T08:39:00.148Z,17.3918
2024-04-06T08:40:01.604Z,17.0649
2024-04-06T08:41:03.017Z,17.1301
2024-04-06T08:42:04.459Z,17.4105
2024-04-06T08:43:05.911Z,17.4775
2024-04-06T08:44:07.348Z,17.4408
2024-04-06T08:45:08.765Z,17.5151
2024-04-06T08:46:10.252Z,17.6511
2024-04-06T08:47:11.656Z,17.5762
2024-04-06T08:48:13.102Z,17.9021
2024-04-06T08:49:14.580Z,17.7378
2024-04-06T08:50:15.986Z,17.8716
2024-04-06T08:51:17.422Z,18.1567
2024-04-06T08:52:18.857Z,18.2280
2024-04-06T08:53:20.343Z,18.2273
2024-04-06T08:54:21.767Z,18.4112
2024-04-06T08:55:23.177Z,18.5356
2024-04-06T08:56:24.627Z,18.7076
2024-04-06T08:57:26.056Z,18.6419
2024-04-06T08:58:27.356Z,18.9409
2024-04-06T08:59:28.636Z,19.4605
2024-04-06T09:00:30.098Z,19.4833
2024-04-06T09:01:31.488Z,19.5162
2024-04-06T09:02:32.935Z,20.6645
2024-04-06T09:03:34.389Z,19.5657
2024-04-06T09:04:35.839Z,19.2929
2024-04-06T09:05:37.247Z,18.8161
2024-04-06T09:06:38.694Z,18.9740
2024-04-06T09:07:40.133Z,19.0970
2024-04-06T09:08:41.580Z,19.5048
2024-04-06T09:09:43.012Z,20.0333
2024-04-06T09:10:44.464Z,20.3211
2024-04-06T09:11:45.894Z,20.2977
2024-04-06T09:12:47.379Z,19.6513
2024-04-06T09:13:48.907Z,20.1278
2024-04-06T09:14:50.245Z,19.5491
2024-04-06T09:15:51.662Z,19.7765
2024-04-06T09:16:53.170Z,19.8835
2024-04-06T09:17:54.541Z,20.2336
2024-04-06T09:18:55.979Z,19.8797
2024-04-06T09:19:57.425Z,20.1212
2024-04-06T09:20:58.863Z,20.4441
2024-04-06T09:22:00.300Z,20.3726
2024-04-06T09:23:01.577Z,20.0563
2024-04-06T09:24:02.844Z,19.9254
2024-04-06T09:25:04.338Z,20.3247
2024-04-06T09:26:05.603Z,20.2928
2024-04-06T09:27:06.895Z,19.9243
2024-04-06T09:28:08.318Z,19.5670
2024-04-06T09:29:09.753Z,19.5224
2024-04-06T09:30:11.125Z,19.7954
2024-04-06T09:31:12.459Z,20.3437
2024-04-06T09:32:13.744Z,20.9310
2024-04-06T09:33:15.180Z,21.0456
2024-04-06T09:34:16.649Z,20.6802
2024-04-06T09:35:18.120Z,21.1458
2024-04-06T09:36:19.587Z,21.0052
2024-04-06T09:37:20.944Z,21.0551
2024-04-06T09:38:25.663Z,21.0646
2024-04-06T09:39:23.826Z,20.1801
2024-04-06T09:40:25.254Z,20.4816
2024-04-06T09:41:26.698Z,20.2397
2024-04-06T09:42:27.977Z,19.5730
2024-04-06T09:43:29.276Z,19.8775
2024-04-06T09:44:30.708Z,19.9148
2024-04-06T09:45:32.145Z,19.8529
2024-04-06T09:46:33.596Z,20.7715
2024-04-06T09:47:35.014Z,21.1288
2024-04-06T09:48:36.455Z,21.1975
2024-04-06T09:49:37.815Z,20.7633
2024-04-06T09:50:39.105Z,19.6904
2024-04-06T09:51:40.465Z,19.6023
2024-04-06T09:52:41.898Z,20.0442
2024-04-06T09:53:43.343Z,19.7819
2024-04-06T09:54:44.776Z,19.8665
2024-04-06T09:55:46.225Z,20.3305
2024-04-06T09:56:47.679Z,20.2349
2024-04-06T09:57:48.941Z,20.0514
2024-04-06T09:58:50.249Z,20.2167
2024-04-06T09:59:52.397Z,20.2558
2024-04-06T10:00:54.667Z,19.7018
2024-04-06T10:01:56.106Z,19.9809
2024-04-06T10:02:57.548Z,19.9892
2024-04-06T10:03:58.978Z,19.9608
2024-04-06T10:05:00.347Z,19.9012
2024-04-06T10:06:01.621Z,19.6273
2024-04-06T10:07:02.908Z,19.8951
2024-04-06T10:08:04.252Z,19.8934
2024-04-06T10:09:05.560Z,19.8395
2024-04-06T10:10:07.016Z,20.0140
2024-04-06T10:11:08.464Z,20.2369
2024-04-06T10:12:09.904Z,19.9656
2024-04-06T10:13:11.350Z,20.0186
2024-04-06T10:14:13.795Z,20.0269
2024-04-06T10:15:16.079Z,20.2840
2024-04-06T10:16:17.456Z,21.0143
2024-04-06T10:17:18.744Z,21.1323
2024-04-06T10:18:20.138Z,21.0325
2024-04-06T10:19:21.599Z,20.7328
2024-04-06T10:20:22.855Z,20.7173
2024-04-06T10:21:24.141Z,21.2075
2024-04-06T10:22:25.600Z,21.5177
2024-04-06T10:23:27.028Z,21.2267
2024-04-06T10:24:28.458Z,21.0908
2024-04-06T10:25:29.898Z,20.9139
2024-04-06T10:26:31.341Z,20.8921
2024-04-06T10:27:32.772Z,20.7955
2024-04-06T10:28:34.234Z,20.6126
2024-04-06T10:29:35.656Z,20.5468
2024-04-06T10:30:37.120Z,20.3781
2024-04-06T10:31:46.058Z,20.3318
2024-04-06T10:32:38.668Z,20.2883
2024-04-06T10:33:40.116Z,20.4347
2024-04-06T10:34:49.690Z,20.3747
2024-04-06T10:35:41.597Z,21.0803
2024-04-06T10:36:42.919Z,21.1065
2024-04-06T10:37:44.246Z,20.6593
2024-04-06T10:38:45.627Z,20.8486
2024-04-06T10:39:46.881Z,20.6593
2024-04-06T10:40:48.308Z,20.2803
2024-04-06T10:41:49.855Z,20.5274
2024-04-06T10:42:51.176Z,20.6023
2024-04-06T10:43:52.622Z,20.0156
2024-04-06T10:44:54.056Z,20.3989
2024-04-06T10:45:55.528Z,20.7391
2024-04-06T10:46:56.990Z,20.9742
2024-04-06T10:47:58.404Z,21.5344
2024-04-06T10:48:59.767Z,21.3508
2024-04-06T10:50:01.125Z,21.1973
2024-04-06T10:51:02.447Z,21.2061
2024-04-06T10:52:03.819Z,21.7255
2024-04-06T10:53:05.242Z,21.4503
2024-04-06T10:54:06.691Z,21.4026
2024-04-06T10:55:08.131Z,21.5612
2024-04-06T10:56:09.658Z,22.1559
2024-04-06T10:57:11.101Z,22.1355
2024-04-06T10:58:12.481Z,22.0917
2024-04-06T10:59:13.814Z,22.0710
2024-04-06T11:00:15.104Z,22.5697
2024-04-06T11:01:16.483Z,22.6968
2024-04-06T11:02:17.904Z,22.3196
2024-04-06T11:03:19.348Z,21.9052
2024-04-06T11:04:20.898Z,21.6560
2024-04-06T11:05:22.266Z,22.0392
2024-04-06T11:06:23.669Z,22.5348
2024-04-06T11:07:25.099Z,22.3397
2024-04-06T11:08:26.365Z,22.3094
2024-04-06T11:09:27.645Z,22.6660
2024-04-06T11:10:28.934Z,22.9567
2024-04-06T11:11:30.209Z,22.8686
2024-04-06T11:12:31.657Z,22.6702
2024-04-06T11:13:33.102Z,23.1834
2024-04-06T11:14:34.537Z,23.9978
2024-04-06T11:15:35.987Z,23.0485
2024-04-06T11:16:37.539Z,22.5719
2024-04-06T11:17:38.931Z,22.6957
2024-04-06T11:18:42.159Z,22.7312
2024-04-06T11:19:43.628Z,23.0177
2024-04-06T11:20:45.087Z,23.0877
2024-04-06T11:21:46.434Z,23.4523
2024-04-06T11:22:47.768Z,23.3219
2024-04-06T11:23:49.405Z,23.5142
2024-04-06T11:24:50.847Z,22.6212
2024-04-06T11:25:52.274Z,23.9532
2024-04-06T11:26:53.717Z,23.2643
2024-04-06T11:27:55.204Z,23.7589
2024-04-06T11:28:56.608Z,24.6247
2024-04-06T11:29:58.880Z,24.8382
2024-04-06T11:31:01.430Z,24.5181
2024-04-06T11:32:02.699Z,24.4758
2024-04-06T11:33:04.001Z,24.3736
2024-04-06T11:34:05.418Z,23.8023
2024-04-06T11:35:06.872Z,24.2774
2024-04-06T11:36:08.308Z,23.7377
2024-04-06T11:37:09.815Z,23.7566
2024-04-06T11:38:11.175Z,23.9517
2024-04-06T11:39:12.612Z,24.0567
2024-04-06T11:40:14.062Z,23.8854
2024-04-06T11:41:15.498Z,24.2463
2024-04-06T11:42:16.956Z,24.0352
2024-04-06T11:43:18.546Z,24.6485
2024-04-06T11:44:19.805Z,24.4105
2024-04-06T11:45:21.284Z,24.3414
2024-04-06T11:46:22.754Z,24.5247
2024-04-06T11:47:24.147Z,25.0199
2024-04-06T11:48:26.982Z,25.5458
2024-04-06T11:49:26.108Z,24.9574
2024-04-06T11:50:27.421Z,24.8220
2024-04-06T11:51:28.762Z,25.1586
2024-04-06T11:52:30.037Z,25.4210
2024-04-06T11:53:31.518Z,25.1181
2024-04-06T11:54:32.945Z,25.1354
2024-04-06T11:55:34.387Z,25.2230
2024-04-06T11:56:35.806Z,24.4260
2024-04-06T11:57:37.266Z,25.0823
2024-04-06T11:58:38.533Z,25.1883
2024-04-06T11:59:39.854Z,24.2385
2024-04-06T12:00:41.279Z,24.5853
2024-04-06T12:01:42.711Z,25.9858
2024-04-06T12:02:44.144Z,27.4111
2024-04-06T12:03:45.630Z,26.7109
2024-04-06T12:04:47.022Z,26.4498
2024-04-06T12:05:48.467Z,26.3469
2024-04-06T12:06:49.934Z,27.0918
2024-04-06T12:07:51.344Z,27.0398
2024-04-06T12:08:52.762Z,26.4800
2024-04-06T12:09:54.225Z,27.5332
2024-04-06T12:10:55.656Z,26.4844
2024-04-06T12:11:59.143Z,26.8689
2024-04-06T12:13:00.528Z,26.9958
2024-04-06T12:14:01.898Z,25.7370
2024-04-06T12:15:03.188Z,26.2214
2024-04-06T12:16:04.509Z,27.7316
2024-04-06T12:17:05.824Z,27.7305
2024-04-06T12:18:07.141Z,27.6411
2024-04-06T12:19:08.457Z,27.8076
2024-04-06T12:20:09.922Z,27.3725
2024-04-06T12:21:11.331Z,28.1829
2024-04-06T12:22:12.777Z,26.5169
2024-04-06T12:23:14.221Z,26.3410
2024-04-06T12:24:15.686Z,27.6066
2024-04-06T12:25:17.160Z,27.0887
2024-04-06T12:26:18.537Z,26.8683
2024-04-06T12:27:19.864Z,26.4894
2024-04-06T12:28:21.157Z,26.0303